sensor_id;sensor_type;location;lat;lon;timestamp;temperature;humidity
610;DHT22;292;48.800;9.216;2024-01-07T00:02:26;8.10;84.10
610;DHT22;292;48.800;9.216;2024-01-07T00:04:53;8.10;84.10
610;DHT22;292;48.800;9.216;2024-01-07T00:07:20;8.10;83.90
610;DHT22;292;48.800;9.216;2024-01-07T00:09:47;8.10;83.90
610;DHT22;292;48.800;9.216;2024-01-07T00:12:16;8.10;83.90
610;DHT22;292;48.800;9.216;2024-01-07T00:14:43;8.10;83.80
610;DHT22;292;48.800;9.216;2024-01-07T00:17:10;8.10;83.90
610;DHT22;292;48.800;9.216;2024-01-07T00:19:37;8.10;83.80
610;DHT22;292;48.800;9.216;2024-01-07T00:22:06;8.00;83.80
610;DHT22;292;48.800;9.216;2024-01-07T00:24:33;8.00;83.60
610;DHT22;292;48.800;9.216;2024-01-07T00:27:00;8.00;83.60
610;DHT22;292;48.800;9.216;2024-01-07T00:29:28;8.00;83.50
610;DHT22;292;48.800;9.216;2024-01-07T00:31:56;8.00;83.60
610;DHT22;292;48.800;9.216;2024-01-07T00:34:23;8.00;83.80
610;DHT22;292;48.800;9.216;2024-01-07T00:36:50;8.00;83.60
610;DHT22;292;48.800;9.216;2024-01-07T00:39:17;8.00;83.80
610;DHT22;292;48.800;9.216;2024-01-07T00:41:44;8.00;83.80
610;DHT22;292;48.800;9.216;2024-01-07T00:44:11;8.00;83.80
610;DHT22;292;48.800;9.216;2024-01-07T00:46:39;8.00;83.80
610;DHT22;292;48.800;9.216;2024-01-07T00:49:06;8.00;83.80
610;DHT22;292;48.800;9.216;2024-01-07T00:51:33;8.00;83.80
610;DHT22;292;48.800;9.216;2024-01-07T00:54:00;7.90;83.80
610;DHT22;292;48.800;9.216;2024-01-07T00:56:28;7.90;83.60
610;DHT22;292;48.800;9.216;2024-01-07T00:58:55;7.90;83.80
610;DHT22;292;48.800;9.216;2024-01-07T01:01:22;7.90;83.80
610;DHT22;292;48.800;9.216;2024-01-07T01:03:50;7.90;83.80
610;DHT22;292;48.800;9.216;2024-01-07T01:06:18;7.90;83.80
610;DHT22;292;48.800;9.216;2024-01-07T01:08:45;7.90;83.80
610;DHT22;292;48.800;9.216;2024-01-07T01:11:12;7.90;83.80
610;DHT22;292;48.800;9.216;2024-01-07T01:13:39;7.90;83.90
610;DHT22;292;48.800;9.216;2024-01-07T01:16:07;7.90;83.90
610;DHT22;292;48.800;9.216;2024-01-07T01:18:34;7.90;83.90
610;DHT22;292;48.800;9.216;2024-01-07T01:21:02;7.90;83.90
610;DHT22;292;48.800;9.216;2024-01-07T01:23:30;7.90;83.90
610;DHT22;292;48.800;9.216;2024-01-07T01:25:57;7.90;83.90
610;DHT22;292;48.800;9.216;2024-01-07T01:28:24;7.90;83.80
610;DHT22;292;48.800;9.216;2024-01-07T01:30:51;7.90;83.90
610;DHT22;292;48.800;9.216;2024-01-07T01:33:17;7.90;83.90
610;DHT22;292;48.800;9.216;2024-01-07T01:35:44;7.90;83.90
610;DHT22;292;48.800;9.216;2024-01-07T01:38:13;7.90;84.10
610;DHT22;292;48.800;9.216;2024-01-07T01:40:40;7.90;84.10
610;DHT22;292;48.800;9.216;2024-01-07T01:43:07;7.80;84.10
610;DHT22;292;48.800;9.216;2024-01-07T01:45:34;7.80;84.20
610;DHT22;292;48.800;9.216;2024-01-07T01:48:01;7.80;84.20
610;DHT22;292;48.800;9.216;2024-01-07T01:50:28;7.80;84.20
610;DHT22;292;48.800;9.216;2024-01-07T01:52:55;7.80;84.40
610;DHT22;292;48.800;9.216;2024-01-07T01:55:24;7.70;84.40
610;DHT22;292;48.800;9.216;2024-01-07T01:57:52;7.70;84.70
610;DHT22;292;48.800;9.216;2024-01-07T02:00:19;7.70;84.70
610;DHT22;292;48.800;9.216;2024-01-07T02:02:46;7.70;84.80
610;DHT22;292;48.800;9.216;2024-01-07T02:05:13;7.80;84.80
610;DHT22;292;48.800;9.216;2024-01-07T02:07:40;7.80;84.80
610;DHT22;292;48.800;9.216;2024-01-07T02:10:08;7.80;84.80
610;DHT22;292;48.800;9.216;2024-01-07T02:12:36;7.80;84.80
610;DHT22;292;48.800;9.216;2024-01-07T02:15:05;7.80;84.90
610;DHT22;292;48.800;9.216;2024-01-07T02:17:32;7.80;84.90
610;DHT22;292;48.800;9.216;2024-01-07T02:20:00;7.80;84.90
610;DHT22;292;48.800;9.216;2024-01-07T02:22:27;7.80;84.90
610;DHT22;292;48.800;9.216;2024-01-07T02:24:56;7.80;84.90
610;DHT22;292;48.800;9.216;2024-01-07T02:27:23;7.80;85.10
610;DHT22;292;48.800;9.216;2024-01-07T02:29:50;7.80;85.10
610;DHT22;292;48.800;9.216;2024-01-07T02:32:17;7.80;85.10
610;DHT22;292;48.800;9.216;2024-01-07T02:34:44;7.80;85.10
610;DHT22;292;48.800;9.216;2024-01-07T02:37:12;7.90;85.20
610;DHT22;292;48.800;9.216;2024-01-07T02:39:39;7.90;85.10
610;DHT22;292;48.800;9.216;2024-01-07T02:42:08;7.90;85.10
610;DHT22;292;48.800;9.216;2024-01-07T02:44:34;7.90;85.10
610;DHT22;292;48.800;9.216;2024-01-07T02:47:01;7.90;84.90
610;DHT22;292;48.800;9.216;2024-01-07T02:49:29;7.90;84.90
610;DHT22;292;48.800;9.216;2024-01-07T02:51:56;7.90;84.90
610;DHT22;292;48.800;9.216;2024-01-07T02:54:23;7.90;84.90
610;DHT22;292;48.800;9.216;2024-01-07T02:56:50;7.90;84.80
610;DHT22;292;48.800;9.216;2024-01-07T02:59:18;7.90;84.80
610;DHT22;292;48.800;9.216;2024-01-07T03:01:45;7.90;84.80
610;DHT22;292;48.800;9.216;2024-01-07T03:04:13;7.90;84.70
610;DHT22;292;48.800;9.216;2024-01-07T03:06:40;7.90;84.70
610;DHT22;292;48.800;9.216;2024-01-07T03:09:07;7.90;84.70
610;DHT22;292;48.800;9.216;2024-01-07T03:11:39;7.90;84.70
610;DHT22;292;48.800;9.216;2024-01-07T03:14:07;7.90;84.50
610;DHT22;292;48.800;9.216;2024-01-07T03:16:35;7.90;84.50
610;DHT22;292;48.800;9.216;2024-01-07T03:19:02;7.90;84.40
610;DHT22;292;48.800;9.216;2024-01-07T03:21:30;7.90;84.50
610;DHT22;292;48.800;9.216;2024-01-07T03:23:57;7.90;84.40
610;DHT22;292;48.800;9.216;2024-01-07T03:26:24;7.90;84.40
610;DHT22;292;48.800;9.216;2024-01-07T03:28:51;7.90;84.20
610;DHT22;292;48.800;9.216;2024-01-07T03:31:19;7.90;84.10
610;DHT22;292;48.800;9.216;2024-01-07T03:33:50;7.90;84.40
610;DHT22;292;48.800;9.216;2024-01-07T03:36:17;7.90;84.20
610;DHT22;292;48.800;9.216;2024-01-07T03:38:44;7.90;84.10
610;DHT22;292;48.800;9.216;2024-01-07T03:41:16;7.90;84.10
610;DHT22;292;48.800;9.216;2024-01-07T03:43:44;7.90;84.10
610;DHT22;292;48.800;9.216;2024-01-07T03:46:11;7.90;84.10
610;DHT22;292;48.800;9.216;2024-01-07T03:48:38;7.90;84.10
610;DHT22;292;48.800;9.216;2024-01-07T03:51:07;7.90;83.90
610;DHT22;292;48.800;9.216;2024-01-07T03:53:34;7.90;84.10
610;DHT22;292;48.800;9.216;2024-01-07T03:56:01;7.90;84.10
610;DHT22;292;48.800;9.216;2024-01-07T03:58:28;7.90;84.10
610;DHT22;292;48.800;9.216;2024-01-07T04:00:55;7.90;83.90
610;DHT22;292;48.800;9.216;2024-01-07T04:03:22;7.90;83.80
610;DHT22;292;48.800;9.216;2024-01-07T04:05:49;7.80;83.60
610;DHT22;292;48.800;9.216;2024-01-07T04:08:18;7.80;83.50
610;DHT22;292;48.800;9.216;2024-01-07T04:10:45;7.80;83.40
610;DHT22;292;48.800;9.216;2024-01-07T04:13:12;7.80;83.40
610;DHT22;292;48.800;9.216;2024-01-07T04:15:39;7.80;83.10
610;DHT22;292;48.800;9.216;2024-01-07T04:18:06;7.70;83.10
610;DHT22;292;48.800;9.216;2024-01-07T04:20:34;7.80;83.40
610;DHT22;292;48.800;9.216;2024-01-07T04:23:01;7.80;83.40
610;DHT22;292;48.800;9.216;2024-01-07T04:25:30;7.80;83.10
610;DHT22;292;48.800;9.216;2024-01-07T04:27:57;7.80;83.10
610;DHT22;292;48.800;9.216;2024-01-07T04:30:24;7.80;83.10
610;DHT22;292;48.800;9.216;2024-01-07T04:32:51;7.80;83.10
610;DHT22;292;48.800;9.216;2024-01-07T04:35:18;7.70;83.10
610;DHT22;292;48.800;9.216;2024-01-07T04:37:46;7.70;83.10
610;DHT22;292;48.800;9.216;2024-01-07T04:40:13;7.70;83.40
610;DHT22;292;48.800;9.216;2024-01-07T04:42:41;7.70;83.10
610;DHT22;292;48.800;9.216;2024-01-07T04:45:08;7.70;83.10
610;DHT22;292;48.800;9.216;2024-01-07T04:47:35;7.70;83.40
610;DHT22;292;48.800;9.216;2024-01-07T04:50:03;7.70;83.40
610;DHT22;292;48.800;9.216;2024-01-07T04:52:30;7.70;83.40
610;DHT22;292;48.800;9.216;2024-01-07T04:54:58;7.70;83.40
610;DHT22;292;48.800;9.216;2024-01-07T04:57:25;7.70;83.10
610;DHT22;292;48.800;9.216;2024-01-07T04:59:54;7.70;83.10
610;DHT22;292;48.800;9.216;2024-01-07T05:02:21;7.70;83.10
610;DHT22;292;48.800;9.216;2024-01-07T05:04:48;7.70;83.10
610;DHT22;292;48.800;9.216;2024-01-07T05:07:17;7.60;83.20
610;DHT22;292;48.800;9.216;2024-01-07T05:09:44;7.60;83.20
610;DHT22;292;48.800;9.216;2024-01-07T05:12:11;7.60;83.20
610;DHT22;292;48.800;9.216;2024-01-07T05:14:39;7.60;83.20
610;DHT22;292;48.800;9.216;2024-01-07T05:17:09;7.60;83.20
610;DHT22;292;48.800;9.216;2024-01-07T05:19:36;7.60;83.20
610;DHT22;292;48.800;9.216;2024-01-07T05:22:06;7.60;83.20
610;DHT22;292;48.800;9.216;2024-01-07T05:24:33;7.60;83.20
610;DHT22;292;48.800;9.216;2024-01-07T05:27:00;7.50;83.40
610;DHT22;292;48.800;9.216;2024-01-07T05:29:27;7.50;83.40
610;DHT22;292;48.800;9.216;2024-01-07T05:31:54;7.60;83.40
610;DHT22;292;48.800;9.216;2024-01-07T05:34:22;7.50;83.20
610;DHT22;292;48.800;9.216;2024-01-07T05:36:49;7.50;83.20
610;DHT22;292;48.800;9.216;2024-01-07T05:39:16;7.50;83.20
610;DHT22;292;48.800;9.216;2024-01-07T05:41:43;7.50;83.40
610;DHT22;292;48.800;9.216;2024-01-07T05:44:12;7.50;83.40
610;DHT22;292;48.800;9.216;2024-01-07T05:46:39;7.50;83.40
610;DHT22;292;48.800;9.216;2024-01-07T05:49:06;7.50;83.40
610;DHT22;292;48.800;9.216;2024-01-07T05:51:38;7.50;83.20
610;DHT22;292;48.800;9.216;2024-01-07T05:54:05;7.50;83.40
610;DHT22;292;48.800;9.216;2024-01-07T05:56:32;7.50;83.40
610;DHT22;292;48.800;9.216;2024-01-07T05:59:04;7.50;83.40
610;DHT22;292;48.800;9.216;2024-01-07T06:01:31;7.40;83.20
610;DHT22;292;48.800;9.216;2024-01-07T06:03:58;7.40;83.20
610;DHT22;292;48.800;9.216;2024-01-07T06:06:25;7.40;83.20
610;DHT22;292;48.800;9.216;2024-01-07T06:08:54;7.40;83.20
610;DHT22;292;48.800;9.216;2024-01-07T06:11:21;7.40;83.20
610;DHT22;292;48.800;9.216;2024-01-07T06:13:48;7.40;83.20
610;DHT22;292;48.800;9.216;2024-01-07T06:16:15;7.40;83.20
610;DHT22;292;48.800;9.216;2024-01-07T06:18:42;7.40;83.20
610;DHT22;292;48.800;9.216;2024-01-07T06:21:09;7.40;83.20
610;DHT22;292;48.800;9.216;2024-01-07T06:23:36;7.40;83.20
610;DHT22;292;48.800;9.216;2024-01-07T06:26:05;7.40;83.20
610;DHT22;292;48.800;9.216;2024-01-07T06:28:32;7.40;83.20
610;DHT22;292;48.800;9.216;2024-01-07T06:30:59;7.50;83.20
610;DHT22;292;48.800;9.216;2024-01-07T06:33:26;7.50;83.20
610;DHT22;292;48.800;9.216;2024-01-07T06:35:53;7.50;83.20
610;DHT22;292;48.800;9.216;2024-01-07T06:38:20;7.50;83.10
610;DHT22;292;48.800;9.216;2024-01-07T06:40:47;7.50;82.90
610;DHT22;292;48.800;9.216;2024-01-07T06:43:15;7.50;83.10
610;DHT22;292;48.800;9.216;2024-01-07T06:45:43;7.50;83.10
610;DHT22;292;48.800;9.216;2024-01-07T06:48:10;7.50;82.90
610;DHT22;292;48.800;9.216;2024-01-07T06:50:37;7.50;82.80
610;DHT22;292;48.800;9.216;2024-01-07T06:53:04;7.50;82.60
610;DHT22;292;48.800;9.216;2024-01-07T06:55:31;7.50;82.60
610;DHT22;292;48.800;9.216;2024-01-07T06:57:58;7.40;82.40
610;DHT22;292;48.800;9.216;2024-01-07T07:00:27;7.40;82.40
610;DHT22;292;48.800;9.216;2024-01-07T07:02:54;7.40;82.10
610;DHT22;292;48.800;9.216;2024-01-07T07:05:21;7.40;81.90
610;DHT22;292;48.800;9.216;2024-01-07T07:07:48;7.40;81.90
610;DHT22;292;48.800;9.216;2024-01-07T07:10:15;7.40;81.60
610;DHT22;292;48.800;9.216;2024-01-07T07:12:42;7.40;81.30
610;DHT22;292;48.800;9.216;2024-01-07T07:15:09;7.40;81.20
610;DHT22;292;48.800;9.216;2024-01-07T07:17:38;7.40;80.90
610;DHT22;292;48.800;9.216;2024-01-07T07:20:06;7.30;80.60
610;DHT22;292;48.800;9.216;2024-01-07T07:22:33;7.30;80.10
610;DHT22;292;48.800;9.216;2024-01-07T07:25:01;7.30;79.90
610;DHT22;292;48.800;9.216;2024-01-07T07:27:28;7.30;79.30
610;DHT22;292;48.800;9.216;2024-01-07T07:29:55;7.30;79.10
610;DHT22;292;48.800;9.216;2024-01-07T07:32:22;7.20;78.70
610;DHT22;292;48.800;9.216;2024-01-07T07:34:50;7.20;78.70
610;DHT22;292;48.800;9.216;2024-01-07T07:37:17;7.20;78.40
610;DHT22;292;48.800;9.216;2024-01-07T07:39:44;7.20;78.10
610;DHT22;292;48.800;9.216;2024-01-07T07:42:11;7.20;78.10
610;DHT22;292;48.800;9.216;2024-01-07T07:44:38;7.20;77.80
610;DHT22;292;48.800;9.216;2024-01-07T07:47:05;7.10;77.40
610;DHT22;292;48.800;9.216;2024-01-07T07:49:33;7.10;77.30
610;DHT22;292;48.800;9.216;2024-01-07T07:52:03;7.10;77.30
610;DHT22;292;48.800;9.216;2024-01-07T07:54:30;7.10;77.10
610;DHT22;292;48.800;9.216;2024-01-07T07:56:57;7.10;77.00
610;DHT22;292;48.800;9.216;2024-01-07T07:59:24;7.10;77.00
610;DHT22;292;48.800;9.216;2024-01-07T08:01:51;7.10;77.00
610;DHT22;292;48.800;9.216;2024-01-07T08:04:18;7.10;76.80
610;DHT22;292;48.800;9.216;2024-01-07T08:06:45;7.00;76.50
610;DHT22;292;48.800;9.216;2024-01-07T08:09:14;7.00;76.50
610;DHT22;292;48.800;9.216;2024-01-07T08:11:41;7.00;76.40
610;DHT22;292;48.800;9.216;2024-01-07T08:14:07;7.00;76.20
610;DHT22;292;48.800;9.216;2024-01-07T08:16:34;7.00;76.20
610;DHT22;292;48.800;9.216;2024-01-07T08:19:01;6.90;76.00
610;DHT22;292;48.800;9.216;2024-01-07T08:21:28;6.90;75.80
610;DHT22;292;48.800;9.216;2024-01-07T08:23:55;6.90;75.70
610;DHT22;292;48.800;9.216;2024-01-07T08:26:24;6.90;75.80
610;DHT22;292;48.800;9.216;2024-01-07T08:28:51;6.90;75.70
610;DHT22;292;48.800;9.216;2024-01-07T08:31:18;7.00;75.40
610;DHT22;292;48.800;9.216;2024-01-07T08:33:45;6.90;75.40
610;DHT22;292;48.800;9.216;2024-01-07T08:36:12;6.90;75.20
610;DHT22;292;48.800;9.216;2024-01-07T08:38:39;6.90;75.00
610;DHT22;292;48.800;9.216;2024-01-07T08:41:06;6.90;75.00
610;DHT22;292;48.800;9.216;2024-01-07T08:43:34;6.90;75.00
610;DHT22;292;48.800;9.216;2024-01-07T08:46:03;6.90;74.80
610;DHT22;292;48.800;9.216;2024-01-07T08:48:31;6.90;74.80
610;DHT22;292;48.800;9.216;2024-01-07T08:50:58;6.90;74.70
610;DHT22;292;48.800;9.216;2024-01-07T08:53:25;6.90;74.50
610;DHT22;292;48.800;9.216;2024-01-07T08:55:52;6.80;74.50
610;DHT22;292;48.800;9.216;2024-01-07T08:58:19;6.80;74.50
610;DHT22;292;48.800;9.216;2024-01-07T09:00:48;6.90;74.50
610;DHT22;292;48.800;9.216;2024-01-07T09:03:15;6.80;74.40
610;DHT22;292;48.800;9.216;2024-01-07T09:05:43;6.80;74.20
610;DHT22;292;48.800;9.216;2024-01-07T09:08:10;6.80;74.20
610;DHT22;292;48.800;9.216;2024-01-07T09:10:40;6.80;74.20
610;DHT22;292;48.800;9.216;2024-01-07T09:13:07;6.80;74.10
610;DHT22;292;48.800;9.216;2024-01-07T09:15:34;6.80;73.80
610;DHT22;292;48.800;9.216;2024-01-07T09:18:02;6.80;73.80
610;DHT22;292;48.800;9.216;2024-01-07T09:20:29;6.80;73.50
610;DHT22;292;48.800;9.216;2024-01-07T09:22:57;6.80;73.40
610;DHT22;292;48.800;9.216;2024-01-07T09:25:24;6.80;73.20
610;DHT22;292;48.800;9.216;2024-01-07T09:27:51;6.80;72.80
610;DHT22;292;48.800;9.216;2024-01-07T09:30:18;6.80;72.60
610;DHT22;292;48.800;9.216;2024-01-07T09:32:45;6.90;72.40
610;DHT22;292;48.800;9.216;2024-01-07T09:35:14;6.80;72.10
610;DHT22;292;48.800;9.216;2024-01-07T09:37:41;6.80;71.80
610;DHT22;292;48.800;9.216;2024-01-07T09:40:09;6.80;71.50
610;DHT22;292;48.800;9.216;2024-01-07T09:42:36;6.80;71.10
610;DHT22;292;48.800;9.216;2024-01-07T09:45:04;6.80;71.10
610;DHT22;292;48.800;9.216;2024-01-07T09:47:31;6.80;71.10
610;DHT22;292;48.800;9.216;2024-01-07T09:49:58;6.80;70.90
610;DHT22;292;48.800;9.216;2024-01-07T09:52:26;6.80;70.80
610;DHT22;292;48.800;9.216;2024-01-07T09:54:58;6.80;70.50
610;DHT22;292;48.800;9.216;2024-01-07T09:57:26;6.80;70.30
610;DHT22;292;48.800;9.216;2024-01-07T09:59:53;6.80;70.20
610;DHT22;292;48.800;9.216;2024-01-07T10:02:20;6.80;70.30
610;DHT22;292;48.800;9.216;2024-01-07T10:04:48;6.80;70.20
610;DHT22;292;48.800;9.216;2024-01-07T10:07:16;6.80;70.00
610;DHT22;292;48.800;9.216;2024-01-07T10:09:44;6.80;69.90
610;DHT22;292;48.800;9.216;2024-01-07T10:12:12;6.70;69.80
610;DHT22;292;48.800;9.216;2024-01-07T10:14:39;6.70;69.60
610;DHT22;292;48.800;9.216;2024-01-07T10:17:17;6.70;69.30
610;DHT22;292;48.800;9.216;2024-01-07T10:19:44;6.70;69.30
610;DHT22;292;48.800;9.216;2024-01-07T10:22:13;6.70;69.30
610;DHT22;292;48.800;9.216;2024-01-07T10:24:44;6.70;69.20
610;DHT22;292;48.800;9.216;2024-01-07T10:27:11;6.70;68.90
610;DHT22;292;48.800;9.216;2024-01-07T10:29:38;6.70;68.70
610;DHT22;292;48.800;9.216;2024-01-07T10:32:06;6.60;68.60
610;DHT22;292;48.800;9.216;2024-01-07T10:34:34;6.60;68.50
610;DHT22;292;48.800;9.216;2024-01-07T10:37:02;6.60;68.30
610;DHT22;292;48.800;9.216;2024-01-07T10:39:30;6.60;68.50
610;DHT22;292;48.800;9.216;2024-01-07T10:41:59;6.50;68.50
610;DHT22;292;48.800;9.216;2024-01-07T10:44:28;6.50;68.60
610;DHT22;292;48.800;9.216;2024-01-07T10:46:56;6.50;68.60
610;DHT22;292;48.800;9.216;2024-01-07T10:49:25;6.50;68.60
610;DHT22;292;48.800;9.216;2024-01-07T10:52:02;6.50;68.60
610;DHT22;292;48.800;9.216;2024-01-07T10:54:30;6.50;68.60
610;DHT22;292;48.800;9.216;2024-01-07T10:57:07;6.50;68.60
610;DHT22;292;48.800;9.216;2024-01-07T10:59:36;6.50;68.70
610;DHT22;292;48.800;9.216;2024-01-07T11:02:04;6.50;68.50
610;DHT22;292;48.800;9.216;2024-01-07T11:04:35;6.50;68.50
610;DHT22;292;48.800;9.216;2024-01-07T11:07:27;6.50;68.30
610;DHT22;292;48.800;9.216;2024-01-07T11:10:05;6.50;67.90
610;DHT22;292;48.800;9.216;2024-01-07T11:12:34;6.40;67.90
610;DHT22;292;48.800;9.216;2024-01-07T11:15:01;6.40;67.70
610;DHT22;292;48.800;9.216;2024-01-07T11:17:42;6.40;67.60
610;DHT22;292;48.800;9.216;2024-01-07T11:20:18;6.40;67.60
610;DHT22;292;48.800;9.216;2024-01-07T11:22:46;6.40;67.60
610;DHT22;292;48.800;9.216;2024-01-07T11:25:30;6.40;67.60
610;DHT22;292;48.800;9.216;2024-01-07T11:28:01;6.40;67.50
610;DHT22;292;48.800;9.216;2024-01-07T11:30:28;6.40;67.50
610;DHT22;292;48.800;9.216;2024-01-07T11:32:59;6.40;67.50
610;DHT22;292;48.800;9.216;2024-01-07T11:35:53;6.40;67.50
610;DHT22;292;48.800;9.216;2024-01-07T11:38:23;6.40;67.50
610;DHT22;292;48.800;9.216;2024-01-07T11:40:50;6.40;67.50
610;DHT22;292;48.800;9.216;2024-01-07T11:43:19;6.40;67.60
610;DHT22;292;48.800;9.216;2024-01-07T11:45:49;6.40;67.70
610;DHT22;292;48.800;9.216;2024-01-07T11:48:16;6.50;67.90
610;DHT22;292;48.800;9.216;2024-01-07T11:50:43;6.50;67.90
610;DHT22;292;48.800;9.216;2024-01-07T11:53:11;6.50;67.90
610;DHT22;292;48.800;9.216;2024-01-07T11:55:38;6.50;67.70
610;DHT22;292;48.800;9.216;2024-01-07T11:58:06;6.50;67.60
610;DHT22;292;48.800;9.216;2024-01-07T12:00:34;6.50;67.60
610;DHT22;292;48.800;9.216;2024-01-07T12:03:02;6.50;67.60
610;DHT22;292;48.800;9.216;2024-01-07T12:05:30;6.50;67.60
610;DHT22;292;48.800;9.216;2024-01-07T12:07:57;6.50;67.30
610;DHT22;292;48.800;9.216;2024-01-07T12:10:28;6.50;67.30
610;DHT22;292;48.800;9.216;2024-01-07T12:12:56;6.50;67.30
610;DHT22;292;48.800;9.216;2024-01-07T12:15:23;6.40;67.00
610;DHT22;292;48.800;9.216;2024-01-07T12:18:07;6.40;67.00
610;DHT22;292;48.800;9.216;2024-01-07T12:20:34;6.40;66.90
610;DHT22;292;48.800;9.216;2024-01-07T12:23:07;6.30;67.00
610;DHT22;292;48.800;9.216;2024-01-07T12:25:35;6.30;67.20
610;DHT22;292;48.800;9.216;2024-01-07T12:28:02;6.30;67.20
610;DHT22;292;48.800;9.216;2024-01-07T12:30:29;6.30;67.20
610;DHT22;292;48.800;9.216;2024-01-07T12:32:57;6.30;67.30
610;DHT22;292;48.800;9.216;2024-01-07T12:35:27;6.20;67.30
610;DHT22;292;48.800;9.216;2024-01-07T12:37:54;6.20;67.50
610;DHT22;292;48.800;9.216;2024-01-07T12:40:22;6.20;67.50
610;DHT22;292;48.800;9.216;2024-01-07T12:42:50;6.20;67.50
610;DHT22;292;48.800;9.216;2024-01-07T12:45:17;6.20;67.50
610;DHT22;292;48.800;9.216;2024-01-07T12:47:44;6.20;67.50
610;DHT22;292;48.800;9.216;2024-01-07T12:50:13;6.20;67.50
610;DHT22;292;48.800;9.216;2024-01-07T12:52:43;6.20;67.50
610;DHT22;292;48.800;9.216;2024-01-07T12:55:11;6.10;67.50
610;DHT22;292;48.800;9.216;2024-01-07T12:57:38;6.10;67.50
610;DHT22;292;48.800;9.216;2024-01-07T13:00:06;6.10;67.50
610;DHT22;292;48.800;9.216;2024-01-07T13:02:34;6.10;67.60
610;DHT22;292;48.800;9.216;2024-01-07T13:05:01;6.10;67.70
610;DHT22;292;48.800;9.216;2024-01-07T13:07:30;6.10;67.70
610;DHT22;292;48.800;9.216;2024-01-07T13:09:59;6.10;67.70
610;DHT22;292;48.800;9.216;2024-01-07T13:12:26;6.10;67.70
610;DHT22;292;48.800;9.216;2024-01-07T13:14:53;6.10;67.60
610;DHT22;292;48.800;9.216;2024-01-07T13:17:21;6.00;67.60
610;DHT22;292;48.800;9.216;2024-01-07T13:19:48;6.00;67.50
610;DHT22;292;48.800;9.216;2024-01-07T13:22:15;6.00;67.30
610;DHT22;292;48.800;9.216;2024-01-07T13:24:42;5.90;67.20
610;DHT22;292;48.800;9.216;2024-01-07T13:27:11;5.90;67.20
610;DHT22;292;48.800;9.216;2024-01-07T13:29:38;5.80;67.20
610;DHT22;292;48.800;9.216;2024-01-07T13:32:08;5.80;67.20
610;DHT22;292;48.800;9.216;2024-01-07T13:34:35;5.70;67.20
610;DHT22;292;48.800;9.216;2024-01-07T13:37:03;5.70;67.20
610;DHT22;292;48.800;9.216;2024-01-07T13:39:31;5.70;67.20
610;DHT22;292;48.800;9.216;2024-01-07T13:41:58;5.60;67.30
610;DHT22;292;48.800;9.216;2024-01-07T13:44:27;5.60;67.50
610;DHT22;292;48.800;9.216;2024-01-07T13:46:54;5.60;67.50
610;DHT22;292;48.800;9.216;2024-01-07T13:49:21;5.50;67.50
610;DHT22;292;48.800;9.216;2024-01-07T13:51:48;5.50;67.30
610;DHT22;292;48.800;9.216;2024-01-07T13:54:15;5.50;67.20
610;DHT22;292;48.800;9.216;2024-01-07T13:56:45;5.40;67.20
610;DHT22;292;48.800;9.216;2024-01-07T13:59:12;5.40;67.20
610;DHT22;292;48.800;9.216;2024-01-07T14:01:41;5.30;67.00
610;DHT22;292;48.800;9.216;2024-01-07T14:04:09;5.30;67.00
610;DHT22;292;48.800;9.216;2024-01-07T14:06:36;5.30;67.00
610;DHT22;292;48.800;9.216;2024-01-07T14:09:03;5.30;67.20
610;DHT22;292;48.800;9.216;2024-01-07T14:11:32;5.30;67.20
610;DHT22;292;48.800;9.216;2024-01-07T14:14:00;5.30;67.20
610;DHT22;292;48.800;9.216;2024-01-07T14:16:27;5.20;67.30
610;DHT22;292;48.800;9.216;2024-01-07T14:18:56;5.30;67.50
610;DHT22;292;48.800;9.216;2024-01-07T14:21:25;5.20;67.60
610;DHT22;292;48.800;9.216;2024-01-07T14:23:53;5.30;67.70
610;DHT22;292;48.800;9.216;2024-01-07T14:26:20;5.30;67.70
610;DHT22;292;48.800;9.216;2024-01-07T14:28:49;5.20;67.60
610;DHT22;292;48.800;9.216;2024-01-07T14:31:16;5.20;67.60
610;DHT22;292;48.800;9.216;2024-01-07T14:33:43;5.10;67.70
610;DHT22;292;48.800;9.216;2024-01-07T14:36:12;5.10;68.00
610;DHT22;292;48.800;9.216;2024-01-07T14:38:43;5.10;68.50
610;DHT22;292;48.800;9.216;2024-01-07T14:41:10;5.10;68.70
610;DHT22;292;48.800;9.216;2024-01-07T14:43:39;5.00;68.70
610;DHT22;292;48.800;9.216;2024-01-07T14:46:06;5.00;68.90
610;DHT22;292;48.800;9.216;2024-01-07T14:48:34;5.00;69.00
610;DHT22;292;48.800;9.216;2024-01-07T14:51:01;5.00;69.30
610;DHT22;292;48.800;9.216;2024-01-07T14:53:30;5.00;69.50
610;DHT22;292;48.800;9.216;2024-01-07T14:55:57;4.90;69.60
610;DHT22;292;48.800;9.216;2024-01-07T14:58:24;4.90;69.60
610;DHT22;292;48.800;9.216;2024-01-07T15:00:52;4.90;69.80
610;DHT22;292;48.800;9.216;2024-01-07T15:03:19;4.80;69.90
610;DHT22;292;48.800;9.216;2024-01-07T15:05:46;4.80;69.90
610;DHT22;292;48.800;9.216;2024-01-07T15:08:13;4.80;69.90
610;DHT22;292;48.800;9.216;2024-01-07T15:10:42;4.80;69.90
610;DHT22;292;48.800;9.216;2024-01-07T15:13:09;4.80;69.60
610;DHT22;292;48.800;9.216;2024-01-07T15:15:36;4.80;69.90
610;DHT22;292;48.800;9.216;2024-01-07T15:18:04;4.80;69.90
610;DHT22;292;48.800;9.216;2024-01-07T15:20:31;4.80;69.90
610;DHT22;292;48.800;9.216;2024-01-07T15:22:58;4.70;69.90
610;DHT22;292;48.800;9.216;2024-01-07T15:25:25;4.70;70.00
610;DHT22;292;48.800;9.216;2024-01-07T15:27:54;4.70;70.20
610;DHT22;292;48.800;9.216;2024-01-07T15:30:21;4.70;70.30
610;DHT22;292;48.800;9.216;2024-01-07T15:32:48;4.70;70.50
610;DHT22;292;48.800;9.216;2024-01-07T15:35:15;4.70;70.80
610;DHT22;292;48.800;9.216;2024-01-07T15:37:42;4.70;70.90
610;DHT22;292;48.800;9.216;2024-01-07T15:40:10;4.60;71.20
610;DHT22;292;48.800;9.216;2024-01-07T15:42:40;4.60;71.30
610;DHT22;292;48.800;9.216;2024-01-07T15:45:09;4.60;71.80
610;DHT22;292;48.800;9.216;2024-01-07T15:47:36;4.60;72.10
610;DHT22;292;48.800;9.216;2024-01-07T15:50:04;4.50;72.40
610;DHT22;292;48.800;9.216;2024-01-07T15:52:31;4.50;72.90
610;DHT22;292;48.800;9.216;2024-01-07T15:54:58;4.50;73.20
610;DHT22;292;48.800;9.216;2024-01-07T15:57:25;4.50;73.50
610;DHT22;292;48.800;9.216;2024-01-07T15:59:52;4.50;73.80
610;DHT22;292;48.800;9.216;2024-01-07T16:02:21;4.40;74.10
610;DHT22;292;48.800;9.216;2024-01-07T16:04:48;4.40;74.40
610;DHT22;292;48.800;9.216;2024-01-07T16:07:15;4.40;74.70
610;DHT22;292;48.800;9.216;2024-01-07T16:09:42;4.40;74.80
610;DHT22;292;48.800;9.216;2024-01-07T16:12:09;4.30;75.10
610;DHT22;292;48.800;9.216;2024-01-07T16:14:39;4.30;75.20
610;DHT22;292;48.800;9.216;2024-01-07T16:17:08;4.30;75.50
610;DHT22;292;48.800;9.216;2024-01-07T16:19:36;4.20;75.70
610;DHT22;292;48.800;9.216;2024-01-07T16:22:03;4.20;75.70
610;DHT22;292;48.800;9.216;2024-01-07T16:24:36;4.10;76.00
610;DHT22;292;48.800;9.216;2024-01-07T16:27:03;4.10;76.20
610;DHT22;292;48.800;9.216;2024-01-07T16:29:32;4.10;76.40
610;DHT22;292;48.800;9.216;2024-01-07T16:31:59;4.10;76.40
610;DHT22;292;48.800;9.216;2024-01-07T16:34:27;4.10;76.70
610;DHT22;292;48.800;9.216;2024-01-07T16:36:56;4.00;76.80
610;DHT22;292;48.800;9.216;2024-01-07T16:39:23;4.00;77.00
610;DHT22;292;48.800;9.216;2024-01-07T16:41:50;4.00;77.10
610;DHT22;292;48.800;9.216;2024-01-07T16:44:21;4.00;77.10
610;DHT22;292;48.800;9.216;2024-01-07T16:46:49;4.00;77.10
610;DHT22;292;48.800;9.216;2024-01-07T16:49:16;4.00;77.30
610;DHT22;292;48.800;9.216;2024-01-07T16:51:43;3.90;77.40
610;DHT22;292;48.800;9.216;2024-01-07T16:54:12;3.90;77.50
610;DHT22;292;48.800;9.216;2024-01-07T16:56:38;3.90;77.70